createdAt,value
2023-05-15T00:00:26.459Z,28.90
2023-05-15T00:02:54.205Z,28.00
2023-05-15T00:05:21.841Z,31.67
2023-05-15T00:07:49.539Z,32.73
2023-05-15T00:10:17.189Z,29.67
2023-05-15T00:12:44.735Z,27.27
2023-05-15T00:15:12.270Z,30.13
2023-05-15T00:17:40.099Z,31.57
2023-05-15T00:20:07.857Z,31.17
2023-05-15T00:22:35.458Z,30.17
2023-05-15T00:25:03.093Z,29.23
2023-05-15T00:27:30.713Z,31.50
2023-05-15T00:29:58.189Z,30.87
2023-05-15T00:32:25.780Z,32.47
2023-05-15T00:34:53.283Z,32.80
2023-05-15T00:37:20.887Z,32.47
2023-05-15T00:39:48.424Z,33.30
2023-05-15T00:42:15.998Z,30.03
2023-05-15T00:44:44.905Z,30.13
2023-05-15T00:47:13.108Z,26.60
2023-05-15T00:49:42.021Z,32.13
2023-05-15T00:52:09.597Z,29.87
2023-05-15T00:54:37.133Z,30.47
2023-05-15T00:57:06.106Z,31.10
2023-05-15T00:59:34.133Z,31.13
2023-05-15T01:02:01.815Z,29.13
2023-05-15T01:04:29.535Z,29.57
2023-05-15T01:06:57.194Z,30.97
2023-05-15T01:09:24.841Z,33.67
2023-05-15T01:11:55.054Z,30.70
2023-05-15T01:14:22.708Z,27.60
2023-05-15T01:16:50.212Z,30.20
2023-05-15T01:19:17.996Z,30.63
2023-05-15T01:22:03.974Z,32.23
2023-05-15T01:24:34.537Z,29.10
2023-05-15T01:27:20.930Z,30.00
2023-05-15T01:29:48.445Z,30.10
2023-05-15T01:32:21.004Z,33.03
2023-05-15T01:34:54.756Z,28.70
2023-05-15T01:37:25.328Z,33.07
2023-05-15T01:39:56.477Z,30.67
2023-05-15T01:42:27.036Z,32.17
2023-05-15T01:44:56.234Z,33.03
2023-05-15T01:47:28.621Z,31.27
2023-05-15T01:49:57.356Z,30.47
2023-05-15T01:52:31.437Z,27.90
2023-05-15T01:54:59.285Z,31.43
2023-05-15T01:57:27.472Z,29.90
2023-05-15T01:59:55.889Z,26.97
2023-05-15T02:02:24.021Z,28.13
2023-05-15T02:04:52.380Z,28.30
2023-05-15T02:07:20.292Z,29.07
2023-05-15T02:09:48.679Z,32.77
2023-05-15T02:12:16.272Z,30.87
2023-05-15T02:14:44.396Z,29.60
2023-05-15T02:17:11.897Z,34.53
2023-05-15T02:19:39.582Z,29.67
2023-05-15T02:22:07.175Z,28.70
2023-05-15T02:24:34.736Z,30.90
2023-05-15T02:27:11.168Z,35.53
2023-05-15T02:29:56.677Z,33.67
2023-05-15T02:32:34.400Z,31.60
2023-05-15T02:35:11.354Z,31.63
2023-05-15T02:37:39.613Z,28.90
2023-05-15T02:40:10.615Z,29.37
2023-05-15T02:42:38.466Z,31.93
2023-05-15T02:45:06.487Z,33.10
2023-05-15T02:47:34.245Z,30.37
2023-05-15T02:50:02.173Z,31.50
2023-05-15T02:52:29.783Z,31.70
2023-05-15T02:54:57.313Z,29.83
2023-05-15T02:57:24.867Z,30.70
2023-05-15T02:59:53.105Z,35.33
2023-05-15T03:02:20.698Z,31.97
2023-05-15T03:04:48.199Z,34.50
2023-05-15T03:07:16.025Z,33.13
2023-05-15T03:09:43.557Z,34.87
2023-05-15T03:12:11.215Z,33.20
2023-05-15T03:14:38.766Z,36.33
2023-05-15T03:17:06.531Z,37.93
2023-05-15T03:19:34.071Z,38.27
2023-05-15T03:22:01.773Z,33.73
2023-05-15T03:24:29.433Z,33.87
2023-05-15T03:26:57.037Z,34.63
2023-05-15T03:29:24.584Z,37.60
2023-05-15T03:31:52.389Z,33.63
2023-05-15T03:34:19.982Z,35.03
2023-05-15T03:36:47.595Z,32.00
2023-05-15T03:39:15.093Z,31.70
2023-05-15T03:41:42.630Z,33.40
2023-05-15T03:44:10.144Z,31.83
2023-05-15T03:46:39.271Z,32.30
2023-05-15T03:49:06.892Z,30.87
2023-05-15T03:51:34.527Z,37.10
2023-05-15T03:54:02.069Z,37.57
2023-05-15T03:56:29.674Z,30.23
2023-05-15T03:58:57.171Z,30.60
2023-05-15T04:01:24.743Z,32.77
2023-05-15T04:03:52.240Z,34.87
2023-05-15T04:06:19.840Z,31.73
2023-05-15T04:08:47.396Z,37.83
2023-05-15T04:11:14.971Z,32.33
2023-05-15T04:13:42.552Z,31.97
2023-05-15T04:16:10.219Z,30.97
2023-05-15T04:18:38.897Z,37.13
2023-05-15T04:21:06.549Z,31.60
2023-05-15T04:23:34.089Z,36.90
2023-05-15T04:26:01.685Z,30.87
2023-05-15T04:28:30.446Z,31.47
2023-05-15T04:30:58.178Z,29.03
2023-05-15T04:33:25.744Z,32.20
2023-05-15T04:35:53.435Z,29.77
2023-05-15T04:38:20.973Z,32.10
2023-05-15T04:40:48.560Z,30.73
2023-05-15T04:43:16.136Z,30.93
2023-05-15T04:45:43.776Z,27.90
2023-05-15T04:48:11.402Z,29.27
2023-05-15T04:50:38.977Z,29.23
2023-05-15T04:53:06.464Z,33.57
2023-05-15T04:55:33.980Z,26.93
2023-05-15T04:58:01.612Z,26.57
2023-05-15T05:00:29.560Z,26.37
2023-05-15T05:02:57.098Z,28.30
2023-05-15T05:05:24.830Z,28.47
2023-05-15T05:07:52.573Z,29.77
2023-05-15T05:10:20.180Z,30.23
2023-05-15T05:12:50.129Z,32.67
2023-05-15T05:15:17.727Z,36.57
2023-05-15T05:17:45.282Z,34.50
2023-05-15T05:20:13.299Z,34.20
2023-05-15T05:22:41.034Z,35.10
2023-05-15T05:25:08.864Z,37.20
2023-05-15T05:27:36.492Z,31.77
2023-05-15T05:30:04.206Z,32.70
2023-05-15T05:32:32.014Z,35.20
2023-05-15T05:34:59.559Z,33.33
2023-05-15T05:37:27.097Z,36.53
2023-05-15T05:39:54.691Z,40.63
2023-05-15T05:42:22.215Z,40.00
2023-05-15T05:44:49.759Z,37.60
2023-05-15T05:47:17.415Z,37.77
2023-05-15T05:49:47.247Z,37.20
2023-05-15T05:52:14.832Z,32.27
2023-05-15T05:54:42.532Z,34.27
2023-05-15T05:57:10.263Z,37.13
2023-05-15T05:59:37.810Z,33.93
2023-05-15T06:02:05.554Z,35.27
2023-05-15T06:04:33.647Z,36.07
2023-05-15T06:07:01.329Z,36.27
2023-05-15T06:09:28.898Z,29.20
2023-05-15T06:11:56.472Z,34.57
2023-05-15T06:14:23.954Z,34.50
2023-05-15T06:16:51.582Z,29.27
2023-05-15T06:19:19.253Z,30.77
2023-05-15T06:21:46.941Z,28.37
2023-05-15T06:24:14.909Z,29.87
2023-05-15T06:26:42.534Z,32.37
2023-05-15T06:29:10.057Z,30.13
2023-05-15T06:31:37.725Z,34.90
2023-05-15T06:34:05.295Z,30.60
2023-05-15T06:36:32.857Z,27.27
2023-05-15T06:39:00.424Z,33.00
2023-05-15T06:41:28.023Z,28.50
2023-05-15T06:43:55.573Z,29.83
2023-05-15T06:46:23.201Z,27.43
2023-05-15T06:48:50.774Z,29.63
2023-05-15T06:51:18.444Z,29.43
2023-05-15T06:53:45.966Z,25.87
2023-05-15T06:56:13.565Z,28.53
2023-05-15T06:58:41.064Z,27.93
2023-05-15T07:01:09.624Z,29.73
2023-05-15T07:03:37.202Z,31.93
2023-05-15T07:06:05.079Z,26.40
2023-05-15T07:08:32.629Z,26.77
2023-05-15T07:11:00.230Z,32.00
2023-05-15T07:13:27.822Z,29.10
2023-05-15T07:15:55.441Z,33.03
2023-05-15T07:18:23.032Z,30.63
2023-05-15T07:20:50.725Z,35.17
2023-05-15T07:23:18.282Z,33.90
2023-05-15T07:25:46.143Z,36.17
2023-05-15T07:28:16.322Z,35.93
2023-05-15T07:30:43.989Z,33.07
2023-05-15T07:33:11.550Z,35.97
2023-05-15T07:35:39.164Z,32.47
2023-05-15T07:38:06.716Z,31.20
2023-05-15T07:40:34.321Z,31.20
2023-05-15T07:43:01.807Z,31.13
2023-05-15T07:45:29.350Z,33.77
2023-05-15T07:47:56.998Z,31.37
2023-05-15T07:50:24.949Z,23.60
2023-05-15T07:52:52.527Z,25.93
2023-05-15T07:55:20.267Z,27.73
2023-05-15T07:57:53.367Z,27.80
2023-05-15T08:00:21.522Z,34.13
2023-05-15T08:02:49.164Z,30.10
2023-05-15T08:05:16.953Z,30.80
2023-05-15T08:07:44.549Z,29.17
2023-05-15T08:10:12.196Z,32.27
2023-05-15T08:12:39.712Z,33.07
2023-05-15T08:15:07.595Z,31.23
2023-05-15T08:17:35.162Z,29.37
2023-05-15T08:20:02.819Z,29.37
2023-05-15T08:22:30.388Z,30.03
2023-05-15T08:24:58.165Z,30.53
2023-05-15T08:27:25.683Z,27.70
2023-05-15T08:29:53.497Z,29.07
2023-05-15T08:32:21.079Z,27.23
2023-05-15T08:34:48.636Z,30.60
2023-05-15T08:37:16.142Z,33.27
2023-05-15T08:39:43.674Z,31.17
2023-05-15T08:42:34.409Z,35.83
2023-05-15T08:45:02.154Z,37.77
2023-05-15T08:47:30.003Z,34.10
2023-05-15T08:50:03.124Z,29.97
2023-05-15T08:52:30.795Z,32.23
2023-05-15T08:54:59.439Z,33.63
2023-05-15T08:57:27.191Z,30.87
2023-05-15T08:59:55.105Z,33.97
2023-05-15T09:02:23.721Z,29.93
2023-05-15T09:04:51.254Z,25.90
2023-05-15T09:07:19.005Z,24.07
2023-05-15T09:09:46.809Z,22.23
2023-05-15T09:12:15.773Z,25.13
2023-05-15T09:14:46.251Z,29.67
2023-05-15T09:17:13.837Z,24.57
2023-05-15T09:19:42.344Z,26.70
2023-05-15T09:22:16.258Z,28.47
2023-05-15T09:24:44.259Z,27.33
2023-05-15T09:27:11.915Z,26.43
2023-05-15T09:29:40.203Z,24.50
2023-05-15T09:32:09.363Z,27.50
2023-05-15T09:34:37.890Z,27.67
2023-05-15T09:37:06.758Z,27.17
2023-05-15T09:39:36.295Z,26.97
2023-05-15T09:42:11.181Z,28.80
2023-05-15T09:44:42.724Z,26.57
2023-05-15T09:47:14.360Z,28.33
2023-05-15T09:49:44.887Z,28.50
2023-05-15T09:52:12.549Z,25.10
2023-05-15T09:54:40.458Z,24.23
2023-05-15T09:57:09.131Z,26.60
2023-05-15T09:59:36.709Z,25.93
2023-05-15T10:02:04.392Z,27.13
2023-05-15T10:04:35.244Z,27.33
2023-05-15T10:07:02.907Z,26.20
2023-05-15T10:09:31.204Z,27.73
2023-05-15T10:11:58.762Z,24.20
2023-05-15T10:14:27.313Z,23.77
2023-05-15T10:16:56.036Z,24.27
2023-05-15T10:19:25.206Z,25.77
2023-05-15T10:21:54.438Z,24.10
2023-05-15T10:24:22.181Z,26.13
2023-05-15T10:26:50.047Z,23.57
2023-05-15T10:29:19.131Z,27.13
2023-05-15T10:31:46.836Z,27.40
2023-05-15T10:34:14.688Z,20.87
2023-05-15T10:36:43.334Z,21.33
2023-05-15T10:39:11.356Z,17.87
2023-05-15T10:41:40.122Z,20.50
2023-05-15T10:44:07.679Z,21.27
2023-05-15T10:46:36.141Z,19.53
2023-05-15T10:49:03.908Z,22.33
2023-05-15T10:51:32.255Z,24.90
2023-05-15T10:54:01.049Z,20.30
2023-05-15T10:56:32.470Z,18.57
2023-05-15T10:59:05.842Z,17.57
2023-05-15T11:01:34.406Z,17.33
2023-05-15T11:04:14.069Z,17.17
2023-05-15T11:06:45.424Z,14.80
2023-05-15T11:09:22.377Z,16.47
2023-05-15T11:11:53.199Z,14.40
2023-05-15T11:14:20.705Z,19.70
2023-05-15T11:16:57.678Z,15.53
2023-05-15T11:19:31.836Z,17.67
2023-05-15T11:21:59.393Z,15.30
2023-05-15T11:24:33.769Z,14.40
2023-05-15T11:27:02.148Z,14.57
2023-05-15T11:29:29.774Z,15.43
2023-05-15T11:31:57.702Z,14.57
2023-05-15T11:34:34.920Z,18.40
2023-05-15T11:37:02.598Z,16.23
2023-05-15T11:39:30.206Z,14.80
2023-05-15T11:41:59.232Z,20.13
2023-05-15T11:44:27.983Z,20.53
2023-05-15T11:46:55.790Z,16.57
2023-05-15T11:49:23.463Z,15.10
2023-05-15T11:51:51.795Z,16.67
2023-05-15T11:54:19.511Z,13.07
2023-05-15T11:56:47.049Z,16.50
2023-05-15T11:59:14.867Z,17.43
2023-05-15T12:01:42.888Z,17.83
2023-05-15T12:04:17.474Z,16.37
2023-05-15T12:06:45.645Z,19.60
2023-05-15T12:09:16.614Z,21.83
2023-05-15T12:11:53.744Z,16.53
2023-05-15T12:14:30.829Z,15.23
2023-05-15T12:17:01.796Z,16.73
2023-05-15T12:19:29.452Z,15.30
2023-05-15T12:21:57.031Z,13.87
2023-05-15T12:24:25.087Z,21.50
2023-05-15T12:26:53.372Z,18.70
2023-05-15T12:29:22.062Z,18.77
2023-05-15T12:31:49.788Z,17.23
2023-05-15T12:34:17.472Z,19.03
2023-05-15T12:36:45.015Z,14.07
2023-05-15T12:39:12.634Z,14.87
2023-05-15T12:41:40.103Z,13.43
2023-05-15T12:44:07.714Z,13.00
2023-05-15T12:46:35.551Z,13.37
2023-05-15T12:49:03.148Z,14.60
2023-05-15T12:51:30.659Z,15.80
2023-05-15T12:53:58.262Z,18.70
2023-05-15T12:56:25.897Z,21.93
2023-05-15T12:58:53.555Z,20.17
2023-05-15T13:01:22.581Z,22.93
2023-05-15T13:03:50.651Z,20.73
2023-05-15T13:06:18.513Z,19.00
2023-05-15T13:08:47.823Z,18.53
2023-05-15T13:11:15.523Z,18.20
2023-05-15T13:13:43.069Z,21.47
2023-05-15T13:16:24.878Z,20.70
2023-05-15T13:18:52.965Z,21.77
2023-05-15T13:21:20.576Z,19.87
2023-05-15T13:23:48.186Z,19.03
2023-05-15T13:26:15.845Z,16.80
2023-05-15T13:28:43.376Z,18.40
2023-05-15T13:31:11.028Z,20.00
2023-05-15T13:33:38.645Z,19.77
2023-05-15T13:36:06.330Z,17.47
2023-05-15T13:38:33.932Z,17.50
2023-05-15T13:41:01.522Z,20.87
2023-05-15T13:43:29.125Z,23.87
2023-05-15T13:45:56.616Z,24.40
2023-05-15T13:48:24.274Z,24.43
2023-05-15T13:50:51.809Z,22.57
2023-05-15T13:53:19.393Z,21.57
2023-05-15T13:55:47.085Z,21.90
2023-05-15T13:58:15.100Z,19.50
2023-05-15T14:00:43.705Z,18.60
2023-05-15T14:03:14.792Z,19.43
2023-05-15T14:05:42.853Z,17.13
2023-05-15T14:08:10.371Z,16.37
2023-05-15T14:10:38.210Z,15.40
2023-05-15T14:13:05.797Z,17.57
2023-05-15T14:15:33.392Z,15.00
2023-05-15T14:18:01.025Z,17.83
2023-05-15T14:20:28.747Z,19.67
2023-05-15T14:22:56.312Z,20.17
2023-05-15T14:25:23.943Z,19.53
2023-05-15T14:27:51.497Z,21.17
2023-05-15T14:30:19.265Z,22.00
2023-05-15T14:32:46.937Z,23.10
2023-05-15T14:35:14.540Z,20.83
2023-05-15T14:37:42.046Z,21.03
2023-05-15T14:40:09.985Z,19.17
2023-05-15T14:42:37.696Z,21.30
2023-05-15T14:45:05.499Z,19.70
2023-05-15T14:47:33.086Z,23.47
2023-05-15T14:50:00.740Z,19.83
2023-05-15T14:52:28.227Z,21.37
2023-05-15T14:55:07.733Z,22.40
2023-05-15T14:57:36.748Z,28.90
2023-05-15T15:00:04.778Z,24.70
2023-05-15T15:02:32.448Z,26.43
2023-05-15T15:04:59.997Z,25.17
2023-05-15T15:07:29.714Z,24.43
2023-05-15T15:09:57.254Z,26.57
2023-05-15T15:12:24.830Z,27.20
2023-05-15T15:14:52.432Z,27.67
2023-05-15T15:17:19.962Z,24.90
2023-05-15T15:19:47.513Z,29.33
2023-05-15T15:22:15.006Z,27.17
2023-05-15T15:24:42.579Z,28.03
2023-05-15T15:27:10.089Z,24.93
2023-05-15T15:29:37.690Z,24.33
2023-05-15T15:32:05.452Z,25.57
2023-05-15T15:34:34.298Z,27.20
2023-05-15T15:37:01.852Z,23.07
2023-05-15T15:39:29.424Z,22.47
2023-05-15T15:41:56.978Z,22.03
2023-05-15T15:44:24.678Z,20.93
2023-05-15T15:46:52.173Z,22.00
2023-05-15T15:49:19.736Z,24.57
2023-05-15T15:51:47.281Z,26.43
2023-05-15T15:54:14.850Z,25.77
2023-05-15T15:56:42.556Z,23.93
2023-05-15T15:59:10.233Z,29.07
2023-05-15T16:01:37.948Z,28.13
2023-05-15T16:04:05.715Z,27.00
2023-05-15T16:06:33.726Z,28.50
2023-05-15T16:09:02.305Z,26.90
2023-05-15T16:11:30.213Z,26.60
2023-05-15T16:13:57.742Z,25.60
2023-05-15T16:16:25.294Z,27.63
2023-05-15T16:18:53.074Z,21.10
2023-05-15T16:21:21.391Z,22.10
2023-05-15T16:23:48.976Z,21.90
2023-05-15T16:26:16.458Z,20.27
2023-05-15T16:28:44.036Z,24.43
2023-05-15T16:31:11.628Z,23.63
2023-05-15T16:33:39.323Z,23.93
2023-05-15T16:36:06.938Z,26.83
2023-05-15T16:38:34.731Z,26.83
2023-05-15T16:41:02.508Z,26.23
2023-05-15T16:43:30.114Z,30.77
2023-05-15T16:45:57.664Z,35.00
2023-05-15T16:48:25.367Z,30.30
2023-05-15T16:50:52.910Z,33.20
2023-05-15T16:53:20.789Z,36.03
2023-05-15T16:55:48.367Z,33.87
2023-05-15T16:58:16.086Z,32.97
2023-05-15T17:00:43.705Z,30.07
2023-05-15T17:03:11.326Z,28.30
2023-05-15T17:05:39.110Z,25.03
2023-05-15T17:08:06.664Z,24.63
2023-05-15T17:10:34.262Z,22.07
2023-05-15T17:13:01.850Z,19.67
2023-05-15T17:15:29.561Z,18.83
2023-05-15T17:17:57.145Z,19.43
2023-05-15T17:20:24.759Z,18.43
2023-05-15T17:22:52.330Z,16.57
2023-05-15T17:25:19.997Z,19.80
2023-05-15T17:27:47.505Z,20.07
2023-05-15T17:30:15.225Z,17.43
2023-05-15T17:32:42.764Z,17.63
2023-05-15T17:35:10.563Z,16.73
2023-05-15T17:37:38.079Z,16.57
2023-05-15T17:40:05.966Z,15.17
2023-05-15T17:42:33.480Z,14.37
2023-05-15T17:45:01.040Z,13.17
2023-05-15T17:47:28.628Z,12.10
2023-05-15T17:49:56.335Z,14.53
2023-05-15T17:52:23.905Z,15.50
2023-05-15T17:54:51.642Z,13.00
2023-05-15T17:57:19.265Z,15.07
2023-05-15T17:59:46.793Z,12.70
2023-05-15T18:02:14.405Z,12.70
2023-05-15T18:04:42.138Z,15.53
2023-05-15T18:07:09.700Z,11.67
2023-05-15T18:09:37.247Z,10.23
2023-05-15T18:12:04.883Z,11.50
2023-05-15T18:14:32.626Z,14.80
2023-05-15T18:17:00.150Z,14.00
2023-05-15T18:19:27.752Z,14.93
2023-05-15T18:21:55.239Z,10.33
2023-05-15T18:24:22.912Z,12.63
2023-05-15T18:26:50.525Z,11.13
2023-05-15T18:29:18.096Z,13.23
2023-05-15T18:31:45.609Z,12.63
2023-05-15T18:34:13.319Z,11.37
2023-05-15T18:36:40.872Z,15.03
2023-05-15T18:39:08.417Z,10.40
2023-05-15T18:41:35.938Z,9.43
2023-05-15T18:44:03.664Z,9.67
2023-05-15T18:46:31.269Z,9.80
2023-05-15T18:48:58.977Z,7.37
2023-05-15T18:51:26.542Z,6.57
2023-05-15T18:53:54.222Z,8.33
2023-05-15T18:56:21.741Z,11.67
2023-05-15T18:58:49.357Z,6.63
2023-05-15T19:01:16.983Z,6.60
2023-05-15T19:03:44.680Z,6.80
2023-05-15T19:06:12.277Z,7.50
2023-05-15T19:08:39.839Z,9.13
2023-05-15T19:11:07.558Z,5.43
2023-05-15T19:13:35.201Z,5.03
2023-05-15T19:16:02.897Z,6.87
2023-05-15T19:18:30.470Z,5.43
2023-05-15T19:20:58.098Z,6.93
2023-05-15T19:23:25.637Z,7.77
2023-05-15T19:25:53.200Z,6.17
2023-05-15T19:28:20.762Z,6.30
2023-05-15T19:30:48.305Z,4.97
2023-05-15T19:33:18.896Z,7.73
2023-05-15T19:35:46.597Z,8.60
2023-05-15T19:38:14.084Z,11.13
2023-05-15T19:40:43.566Z,6.93
2023-05-15T19:43:11.165Z,11.17
2023-05-15T19:45:44.941Z,8.70
2023-05-15T19:48:13.230Z,9.33
2023-05-15T19:50:40.890Z,9.17
2023-05-15T19:53:08.893Z,9.70
2023-05-15T19:55:36.398Z,9.97
2023-05-15T19:58:04.090Z,6.53
2023-05-15T20:00:31.895Z,9.43
2023-05-15T20:02:59.592Z,9.63
2023-05-15T20:05:27.318Z,9.07
2023-05-15T20:07:55.537Z,8.77
2023-05-15T20:10:23.452Z,9.90
2023-05-15T20:12:51.076Z,10.63
2023-05-15T20:15:18.669Z,10.97
2023-05-15T20:17:46.153Z,14.37
2023-05-15T20:20:13.672Z,8.13
2023-05-15T20:22:42.408Z,14.67
2023-05-15T20:25:10.108Z,11.70
2023-05-15T20:27:37.751Z,11.73
2023-05-15T20:30:05.437Z,11.77
2023-05-15T20:32:33.067Z,9.90
2023-05-15T20:35:00.637Z,8.77
2023-05-15T20:37:28.278Z,15.33
2023-05-15T20:39:55.766Z,8.83
2023-05-15T20:42:23.814Z,12.00
2023-05-15T20:44:51.660Z,10.73
2023-05-15T20:47:19.411Z,12.23
2023-05-15T20:49:47.106Z,7.43
2023-05-15T20:52:14.771Z,9.53
2023-05-15T20:54:42.297Z,10.70
2023-05-15T20:57:09.831Z,10.57
2023-05-15T20:59:37.361Z,11.27
2023-05-15T21:02:05.008Z,11.37
2023-05-15T21:04:32.572Z,14.77
2023-05-15T21:07:00.161Z,11.87
2023-05-15T21:09:27.730Z,10.53
2023-05-15T21:11:55.328Z,11.97
2023-05-15T21:14:22.879Z,13.00
2023-05-15T21:16:50.529Z,11.77
2023-05-15T21:19:18.213Z,11.40
2023-05-15T21:21:45.905Z,13.17
2023-05-15T21:24:13.433Z,13.70
2023-05-15T21:26:41.008Z,11.30
2023-05-15T21:29:09.014Z,11.70
2023-05-15T21:31:36.777Z,13.33
2023-05-15T21:34:04.609Z,11.43
2023-05-15T21:36:32.240Z,12.63
2023-05-15T21:38:59.745Z,13.27
2023-05-15T21:41:27.616Z,15.10
2023-05-15T21:43:55.658Z,12.97
2023-05-15T21:46:23.269Z,14.73
2023-05-15T21:48:50.807Z,13.50
2023-05-15T21:51:18.432Z,10.53
2023-05-15T21:53:45.921Z,10.20
2023-05-15T21:56:13.479Z,9.47
2023-05-15T21:58:41.029Z,11.83
2023-05-15T22:01:08.559Z,13.53
2023-05-15T22:03:36.199Z,12.43
2023-05-15T22:06:03.895Z,12.07
2023-05-15T22:08:31.386Z,10.93
2023-05-15T22:10:59.091Z,6.90
2023-05-15T22:13:26.637Z,10.27
2023-05-15T22:15:54.255Z,11.70
2023-05-15T22:18:21.793Z,8.87
2023-05-15T22:20:49.380Z,9.83
2023-05-15T22:23:16.851Z,9.23
2023-05-15T22:25:44.409Z,10.33
2023-05-15T22:28:11.896Z,14.67
2023-05-15T22:30:39.457Z,10.17
2023-05-15T22:33:07.032Z,10.97
2023-05-15T22:35:37.604Z,12.17
2023-05-15T22:38:05.169Z,16.60
2023-05-15T22:40:32.669Z,15.40
2023-05-15T22:43:00.263Z,14.97
2023-05-15T22:45:27.867Z,19.77
2023-05-15T22:47:55.436Z,12.57
2023-05-15T22:50:23.007Z,16.27
2023-05-15T22:52:50.561Z,15.07
2023-05-15T22:55:18.067Z,19.23
2023-05-15T22:57:45.658Z,15.30
2023-05-15T23:00:13.480Z,15.63
2023-05-15T23:02:42.642Z,17.10
2023-05-15T23:05:11.749Z,17.33
2023-05-15T23:07:39.242Z,17.33
2023-05-15T23:10:07.173Z,16.27
2023-05-15T23:12:34.683Z,28.40
2023-05-15T23:15:02.255Z,14.93
2023-05-15T23:17:29.904Z,17.90
2023-05-15T23:19:57.549Z,21.77
2023-05-15T23:22:25.168Z,17.23
2023-05-15T23:24:52.746Z,11.93
2023-05-15T23:27:20.267Z,9.43
2023-05-15T23:29:47.774Z,12.93
2023-05-15T23:32:15.344Z,15.17
2023-05-15T23:34:42.872Z,11.10
2023-05-15T23:37:10.422Z,12.33
2023-05-15T23:39:37.976Z,11.17
2023-05-15T23:42:05.592Z,12.97
2023-05-15T23:44:33.174Z,14.80
2023-05-15T23:47:00.861Z,14.57
2023-05-15T23:49:28.452Z,5.87
2023-05-15T23:51:55.985Z,5.67
2023-05-15T23:54:23.620Z,12.53
2023-05-15T23:56:51.245Z,9.47
2023-05-15T23:59:18.807Z,7.67
